EDDT/TXL METAR and TAF weather

Enter ICAO airport designator
Station Type Date Time Source
EDDT METAR 2020/09/27 03:20 UTC NOAA

EDDT 270320Z 11004KT 9999 FEW010 07/06 Q1000 NOSIG


Station Type Date Time Source
EDDT Decoded METAR 2020/09/27 03:20 UTC NOAA

Berlin-Tegel, Germany (EDDT) 52-34N 013-19E 37M
Sep 26, 2020 - 11:20 PM EDT / 2020.09.27 0320 UTC
Wind: from the ESE (110 degrees) at 5 MPH (4 KT):0
Visibility: greater than 7 mile(s):0
Sky conditions: mostly clear
Temperature: 44 F (7 C)
Dew Point: 42 F (6 C)
Relative Humidity: 93%
Pressure (altimeter): 29.53 in. Hg (1000 hPa)
ob: EDDT 270320Z 11004KT 9999 FEW010 07/06 Q1000 NOSIG
cycle: 3

Station Type Date Time Source
EDDT TAF 2020/09/26 18:27 UTC NOAA

TAF EDDT 261700Z 2618/2718 20010KT 8000 BKN008
TEMPO 2618/2621 2500 DZ BKN004
BECMG 2620/2624 15004KT BKN015 PROB30
TEMPO 2704/2707 2500 BCFG
BECMG 2707/2710 25007KT
TEMPO 2710/2718 4000 RADZ BKN008

Example: see airport list